createdAt,value
2022-10-01T00:02:41.662Z,2.92
2022-10-01T00:07:46.011Z,3.00
2022-10-01T00:12:49.903Z,5.45
2022-10-01T00:17:54.392Z,7.82
2022-10-01T00:22:57.141Z,4.65
2022-10-01T00:28:00.046Z,3.13
2022-10-01T00:33:04.280Z,4.47
2022-10-01T00:38:06.945Z,4.20
2022-10-01T00:43:22.265Z,3.17
2022-10-01T02:14:25.173Z,2.85
2022-10-01T02:19:31.071Z,2.50
2022-10-01T02:24:38.478Z,3.30
2022-10-01T02:29:44.687Z,3.08
2022-10-01T02:34:49.311Z,4.43
2022-10-01T02:39:53.097Z,2.92
2022-10-01T02:44:58.210Z,3.42
2022-10-01T03:28:38.778Z,3.97
2022-10-01T03:33:41.475Z,2.78
2022-10-01T04:53:30.095Z,2.47
2022-10-01T04:58:32.780Z,2.58
2022-10-01T05:03:35.544Z,3.08
2022-10-01T05:08:39.824Z,2.60
2022-10-01T05:13:42.486Z,2.30
2022-10-01T05:18:45.286Z,4.13
2022-10-01T05:23:49.386Z,2.90
2022-10-01T06:08:19.419Z,2.75
2022-10-01T06:13:22.059Z,2.60
2022-10-01T06:18:24.839Z,2.00
2022-10-01T06:23:28.865Z,3.47
2022-10-01T06:28:31.587Z,2.13
2022-10-01T06:33:34.408Z,2.35
2022-10-01T06:38:38.413Z,3.00
2022-10-01T06:43:41.131Z,2.38
2022-10-01T06:48:43.806Z,2.42
2022-10-01T06:53:47.840Z,2.00
2022-10-01T06:58:50.511Z,1.80
2022-10-01T07:03:54.137Z,2.25
2022-10-01T07:08:58.405Z,2.28
2022-10-01T07:14:01.436Z,1.88
2022-10-01T07:19:04.152Z,2.00
2022-10-01T07:24:08.517Z,1.85
2022-10-01T07:29:11.322Z,1.63
2022-10-01T07:34:13.964Z,1.90
2022-10-01T07:39:18.102Z,2.05
2022-10-01T07:44:21.027Z,1.73
2022-10-01T07:49:25.003Z,3.00
2022-10-01T07:54:29.027Z,1.60
2022-10-01T08:38:10.969Z,2.33
2022-10-01T08:43:36.431Z,2.10
2022-10-01T08:48:54.776Z,2.40
2022-10-01T08:54:05.779Z,2.70
2022-10-01T08:59:16.326Z,2.42
2022-10-01T09:04:19.131Z,1.90
2022-10-01T09:09:33.914Z,1.88
2022-10-01T09:14:45.517Z,2.08
2022-10-01T09:20:04.422Z,2.00
2022-10-01T09:25:27.041Z,2.50
2022-10-01T09:30:31.155Z,2.40
2022-10-01T09:35:40.395Z,4.30
2022-10-01T09:51:48.679Z,4.55
2022-10-01T09:56:54.087Z,1.67
2022-10-01T10:01:59.024Z,6.90
2022-10-01T10:07:05.349Z,1.95
2022-10-01T10:12:11.067Z,3.42
2022-10-01T10:17:16.635Z,2.03
2022-10-01T10:22:24.835Z,2.05
2022-10-01T10:27:29.419Z,5.93
2022-10-01T10:32:32.514Z,4.78
2022-10-01T10:37:38.394Z,7.72
2022-10-01T10:42:48.474Z,4.63
2022-10-01T10:47:52.748Z,7.95
2022-10-01T10:52:57.267Z,4.82
2022-10-01T10:58:11.291Z,5.40
2022-10-01T11:03:15.712Z,4.50
2022-10-01T11:08:22.637Z,3.47
2022-10-01T11:13:35.975Z,5.50
2022-10-01T11:18:55.944Z,3.47
2022-10-01T11:24:21.176Z,3.72
2022-10-01T11:29:34.437Z,4.32
2022-10-01T11:34:50.622Z,5.68
2022-10-01T11:39:56.811Z,6.47
2022-10-01T11:45:04.617Z,3.90
2022-10-01T11:50:09.288Z,2.50
2022-10-01T11:55:46.945Z,3.80
2022-10-01T12:00:57.146Z,5.55
2022-10-01T12:06:00.384Z,3.20
2022-10-01T12:11:12.990Z,3.28
2022-10-01T12:16:19.753Z,5.05
2022-10-01T12:21:26.213Z,2.60
2022-10-01T12:26:38.518Z,3.13
2022-10-01T12:31:45.780Z,1.80
2022-10-01T12:36:57.704Z,4.13
2022-10-01T12:42:11.649Z,4.85
2022-10-01T12:47:28.414Z,2.72
2022-10-01T12:52:39.157Z,3.38
2022-10-01T12:57:48.151Z,4.22
2022-10-01T13:03:09.675Z,2.20
2022-10-01T13:08:25.216Z,2.38
2022-10-01T13:13:32.847Z,2.05
2022-10-01T13:18:54.492Z,3.80
2022-10-01T13:24:00.150Z,2.03
2022-10-01T13:29:16.074Z,4.53
2022-10-01T13:34:40.154Z,4.47
2022-10-01T13:39:43.583Z,5.00
2022-10-01T13:44:54.150Z,8.38
2022-10-01T13:49:59.762Z,11.48
2022-10-01T13:55:03.111Z,4.50
2022-10-01T14:00:22.514Z,7.95
2022-10-01T14:05:30.305Z,8.95
2022-10-01T14:10:57.679Z,7.68
2022-10-01T14:16:03.304Z,4.13
2022-10-01T14:21:14.924Z,6.13
2022-10-01T14:26:21.167Z,6.93
2022-10-01T14:31:32.718Z,4.53
2022-10-01T14:36:37.526Z,5.00
2022-10-01T14:41:40.445Z,4.40
2022-10-01T14:46:45.748Z,3.78
2022-10-01T14:51:54.095Z,4.30
2022-10-01T14:56:57.191Z,5.13
2022-10-01T15:02:02.990Z,4.18
2022-10-01T15:07:11.683Z,3.50
2022-10-01T15:12:15.354Z,4.15
2022-10-01T15:17:22.251Z,5.05
2022-10-01T15:22:28.439Z,5.35
2022-10-01T15:27:31.580Z,4.35
2022-10-01T15:32:35.632Z,4.35
2022-10-01T15:37:38.950Z,5.60
2022-10-01T15:42:46.448Z,3.97
2022-10-01T15:47:52.199Z,4.13
2022-10-01T15:53:02.104Z,4.18
2022-10-01T15:58:08.945Z,4.95
2022-10-01T16:03:23.288Z,6.68
2022-10-01T16:08:33.765Z,5.78
2022-10-01T16:13:39.154Z,4.25
2022-10-01T16:18:43.708Z,4.93
2022-10-01T16:23:49.427Z,5.95
2022-10-01T16:28:54.853Z,10.88
2022-10-01T16:33:58.926Z,9.45
2022-10-01T16:39:01.747Z,11.88
2022-10-01T16:44:06.053Z,10.07
2022-10-01T16:49:15.874Z,16.33
2022-10-01T16:54:22.964Z,14.50
2022-10-01T16:59:25.766Z,23.60
2022-10-01T17:04:33.941Z,24.92
2022-10-01T17:09:36.913Z,23.08
2022-10-01T17:14:39.535Z,20.38
2022-10-01T17:19:43.583Z,21.38
2022-10-01T17:24:46.226Z,17.85
2022-10-01T17:29:49.045Z,21.05
2022-10-01T17:34:54.328Z,15.95
2022-10-01T17:39:56.942Z,18.05
2022-10-01T17:44:59.650Z,16.95
2022-10-01T17:50:04.769Z,16.75
2022-10-01T17:55:08.434Z,20.25
2022-10-01T18:00:12.587Z,24.08
2022-10-01T18:05:17.197Z,17.20
2022-10-01T18:10:20.160Z,13.95
2022-10-01T18:15:24.084Z,19.30
2022-10-01T18:20:28.486Z,15.90
2022-10-01T18:25:31.203Z,16.35
2022-10-01T18:30:33.874Z,14.20
2022-10-01T18:35:37.868Z,14.80
2022-10-01T18:40:43.552Z,11.60
2022-10-01T18:45:57.711Z,15.05
2022-10-01T18:51:08.516Z,11.05
2022-10-01T18:56:21.880Z,17.13
2022-10-01T19:01:31.007Z,16.38
2022-10-01T19:06:42.198Z,12.93
2022-10-01T19:11:51.559Z,13.43
2022-10-01T19:17:00.870Z,14.30
2022-10-01T19:22:14.690Z,15.50
2022-10-01T19:27:27.602Z,15.60
2022-10-01T19:32:36.912Z,13.32
2022-10-01T19:37:44.989Z,14.63
2022-10-01T19:42:49.999Z,11.38
2022-10-01T19:47:58.387Z,11.25
2022-10-01T19:53:04.231Z,11.77
2022-10-01T19:58:15.681Z,10.85
2022-10-01T20:03:22.711Z,10.23
2022-10-01T20:08:35.635Z,11.20
2022-10-01T20:13:48.303Z,9.10
2022-10-01T20:18:57.968Z,9.60
2022-10-01T20:24:11.022Z,11.05
2022-10-01T20:29:26.565Z,11.15
2022-10-01T20:34:35.955Z,8.05
2022-10-01T20:39:43.038Z,8.13
2022-10-01T20:44:46.156Z,11.85
2022-10-01T20:49:53.674Z,9.02
2022-10-01T20:55:01.881Z,12.85
2022-10-01T21:00:08.294Z,7.68
2022-10-01T21:05:17.277Z,7.63
2022-10-01T21:10:27.545Z,6.30
2022-10-01T21:15:38.713Z,7.70
2022-10-01T21:20:48.988Z,7.82
2022-10-01T21:26:02.955Z,5.50
2022-10-01T21:31:18.750Z,7.30
2022-10-01T21:36:29.095Z,9.45
2022-10-01T21:41:48.275Z,6.78
2022-10-01T21:46:54.965Z,6.68
2022-10-01T21:52:05.549Z,5.97
2022-10-01T21:57:18.939Z,6.57
2022-10-01T22:02:34.735Z,6.85
2022-10-01T22:07:41.248Z,6.22
2022-10-01T22:12:48.781Z,7.95
2022-10-01T22:17:54.848Z,5.82
2022-10-01T22:23:01.256Z,5.60
2022-10-01T22:28:08.093Z,7.07
2022-10-01T22:33:13.580Z,6.88
2022-10-01T22:38:20.117Z,4.90
2022-10-01T22:43:24.161Z,6.25
2022-10-01T22:48:50.110Z,4.72
2022-10-01T22:54:04.571Z,4.85
2022-10-01T22:59:16.063Z,4.72
2022-10-01T23:04:28.505Z,5.07
2022-10-01T23:09:36.749Z,5.75
2022-10-01T23:15:03.216Z,4.53
2022-10-01T23:20:16.188Z,6.40
2022-10-01T23:25:23.928Z,5.00
2022-10-01T23:30:33.121Z,3.47
2022-10-01T23:35:43.878Z,3.22
2022-10-01T23:40:51.670Z,5.68
2022-10-01T23:45:58.230Z,4.18
2022-10-01T23:51:03.643Z,5.10
2022-10-01T23:56:28.782Z,3.97
